Time;durP1;ratioP1;P1;durP2;ratioP2;P2;SDS_P1;SDS_P2;PMS_P1;PMS_P2;Temp;Humidity;BMP_temperature;BMP_pressure;BME280_temperature;BME280_humidity;BME280_pressure;Samples;Min_cycle;Max_cycle;Signal;HPM_P1;HPM_P2
2022/01/28 00:01:05;;;;;;;6.20;3.80;;;;;;;;;;5000464;28;20033;-77
2022/01/28 00:03:32;;;;;;;5.82;3.30;;;;;;;;;;5020514;28;20037;-77
2022/01/28 00:05:58;;;;;;;5.85;3.78;;;;;;;;;;4986995;28;20078;-77
2022/01/28 00:08:23;;;;;;;6.47;3.67;;;;;;;;;;5034434;28;20040;-77
2022/01/28 00:10:51;;;;;;;6.72;4.22;;;;;;;;;;5003521;28;20045;-77
2022/01/28 00:13:22;;;;;;;5.00;3.67;;;;;;;;;;5037591;28;20063;-78
2022/01/28 00:36:28;;;;;;;6.00;3.42;;;;;;;;;;5041419;28;20025;-77
2022/01/28 00:40:27;;;;;;;5.95;3.78;;;;;;;;;;4993923;28;20048;-77
2022/01/28 00:42:52;;;;;;;5.40;3.63;;;;;;;;;;5012310;28;20074;-77
2022/01/28 00:45:18;;;;;;;6.55;4.15;;;;;;;;;;5025849;28;20456;-77
2022/01/28 00:47:44;;;;;;;6.05;3.17;;;;;;;;;;5039854;28;20036;-78
2022/01/28 00:50:10;;;;;;;5.88;3.13;;;;;;;;;;5017587;28;20094;-78
2022/01/28 00:52:35;;;;;;;5.07;3.40;;;;;;;;;;5034393;28;20029;-77
2022/01/28 00:55:01;;;;;;;5.30;3.80;;;;;;;;;;5037353;28;20036;-77
2022/01/28 00:57:26;;;;;;;5.53;3.83;;;;;;;;;;5038251;28;20423;-77
2022/01/28 00:59:52;;;;;;;6.72;3.50;;;;;;;;;;5000762;28;20764;-77
2022/01/28 01:02:17;;;;;;;4.65;3.10;;;;;;;;;;5033613;28;20456;-78
2022/01/28 01:04:43;;;;;;;5.50;3.25;;;;;;;;;;5020020;28;20075;-77
2022/01/28 01:07:08;;;;;;;7.60;3.20;;;;;;;;;;5040425;28;20044;-78
2022/01/28 01:09:34;;;;;;;7.18;3.30;;;;;;;;;;5023499;28;20103;-78
2022/01/28 01:12:00;;;;;;;5.60;3.40;;;;;;;;;;5033030;28;20049;-78
2022/01/28 01:14:26;;;;;;;5.00;3.33;;;;;;;;;;5018829;28;20052;-78
2022/01/28 01:19:25;;;;;;;5.07;3.10;;;;;;;;;;5049792;28;20120;-77
2022/01/28 01:21:55;;;;;;;4.70;3.10;;;;;;;;;;5023962;28;20079;-76
2022/01/28 01:24:23;;;;;;;4.85;3.17;;;;;;;;;;4995257;28;20123;-77
2022/01/28 01:26:49;;;;;;;5.18;3.45;;;;;;;;;;5001379;28;20111;-77
2022/01/28 01:29:18;;;;;;;5.18;3.30;;;;;;;;;;5019687;28;20120;-77
2022/01/28 01:31:44;;;;;;;6.13;3.42;;;;;;;;;;5016534;28;20567;-77
2022/01/28 01:34:13;;;;;;;5.85;3.17;;;;;;;;;;5004414;28;20116;-77
2022/01/28 01:36:39;;;;;;;4.70;3.38;;;;;;;;;;5020567;28;20036;-77
2022/01/28 01:39:04;;;;;;;4.68;2.75;;;;;;;;;;5002301;28;20473;-77
2022/01/28 01:41:35;;;;;;;4.57;3.45;;;;;;;;;;5016865;28;20037;-77
2022/01/28 01:44:06;;;;;;;4.80;2.83;;;;;;;;;;5017913;28;20037;-77
2022/01/28 01:46:44;;;;;;;4.95;3.00;;;;;;;;;;5018340;28;20037;-77
2022/01/28 01:52:04;;;;;;;4.10;2.65;;;;;;;;;;5038141;28;20108;-77
2022/01/28 01:54:42;;;;;;;4.32;2.72;;;;;;;;;;5019910;28;20053;-77
2022/01/28 01:57:09;;;;;;;5.30;2.75;;;;;;;;;;5054761;28;20037;-77
2022/01/28 01:59:35;;;;;;;4.45;2.60;;;;;;;;;;5024357;28;20407;-77
2022/01/28 02:02:01;;;;;;;3.83;2.30;;;;;;;;;;5036320;28;20126;-77
2022/01/28 02:04:26;;;;;;;4.78;2.85;;;;;;;;;;5019893;28;20519;-78
2022/01/28 02:06:52;;;;;;;4.80;2.53;;;;;;;;;;5005720;28;20487;-77
2022/01/28 02:09:18;;;;;;;4.53;2.95;;;;;;;;;;5051462;28;20086;-77
2022/01/28 02:11:43;;;;;;;4.75;2.42;;;;;;;;;;5038912;28;20082;-77
2022/01/28 02:14:08;;;;;;;4.25;2.22;;;;;;;;;;5021276;28;20526;-77
2022/01/28 02:16:34;;;;;;;4.25;2.28;;;;;;;;;;5004499;28;20399;-77
2022/01/28 02:19:01;;;;;;;4.22;2.08;;;;;;;;;;5019693;28;20044;-77
2022/01/28 02:21:26;;;;;;;5.72;2.80;;;;;;;;;;5011288;28;20032;-78
2022/01/28 02:23:58;;;;;;;5.32;2.67;;;;;;;;;;5026769;28;20050;-77
2022/01/28 02:26:23;;;;;;;4.50;2.33;;;;;;;;;;5021845;28;20040;-77
2022/01/28 02:28:54;;;;;;;3.75;2.55;;;;;;;;;;5005559;28;20049;-77
2022/01/28 02:31:25;;;;;;;5.45;2.40;;;;;;;;;;5018150;28;20033;-77
2022/01/28 02:33:54;;;;;;;3.83;2.10;;;;;;;;;;5037683;28;20052;-77
2022/01/28 02:36:20;;;;;;;4.63;2.55;;;;;;;;;;5019735;28;20649;-77
2022/01/28 02:38:45;;;;;;;5.55;2.72;;;;;;;;;;5022554;28;20048;-77
2022/01/28 02:41:11;;;;;;;4.30;2.10;;;;;;;;;;5030623;28;20465;-76
2022/01/28 02:43:44;;;;;;;4.38;2.65;;;;;;;;;;5005985;28;20123;-77
2022/01/28 02:46:13;;;;;;;4.97;2.22;;;;;;;;;;5039132;28;20460;-77
2022/01/28 02:48:52;;;;;;;4.82;2.00;;;;;;;;;;5022410;28;20032;-76
2022/01/28 02:51:19;;;;;;;4.32;2.20;;;;;;;;;;5037495;28;20041;-77
2022/01/28 02:57:18;;;;;;;4.05;2.28;;;;;;;;;;5022610;28;20090;-77
2022/01/28 02:59:08;;;;;;;5.20;2.20;;;;;;;;;;5029457;28;20062;-77
2022/01/28 03:01:34;;;;;;;5.15;2.45;;;;;;;;;;5006033;28;20412;-77
2022/01/28 03:04:02;;;;;;;4.53;2.10;;;;;;;;;;5038171;28;20044;-77
2022/01/28 03:06:27;;;;;;;3.50;2.00;;;;;;;;;;5035136;28;20489;-77
2022/01/28 03:08:58;;;;;;;5.68;2.35;;;;;;;;;;5018639;28;20043;-77
2022/01/28 03:16:28;;;;;;;5.60;2.55;;;;;;;;;;5037730;28;20028;-77
2022/01/28 03:21:43;;;;;;;4.80;2.20;;;;;;;;;;5039808;28;20107;-77
2022/01/28 03:24:06;;;;;;;4.13;1.83;;;;;;;;;;5010788;28;20060;-77
2022/01/28 03:26:32;;;;;;;3.58;1.52;;;;;;;;;;5002922;28;20040;-77
2022/01/28 03:28:57;;;;;;;4.68;2.30;;;;;;;;;;5003001;28;20044;-77
2022/01/28 03:31:23;;;;;;;5.07;1.83;;;;;;;;;;5021670;28;20028;-77
2022/01/28 03:33:48;;;;;;;3.50;1.67;;;;;;;;;;5004503;28;20043;-77
2022/01/28 03:36:14;;;;;;;4.38;2.30;;;;;;;;;;5029780;28;20032;-77
2022/01/28 03:38:40;;;;;;;3.92;1.80;;;;;;;;;;5025029;28;20125;-77
2022/01/28 03:41:12;;;;;;;4.00;1.88;;;;;;;;;;5054666;28;20546;-77
2022/01/28 03:43:37;;;;;;;3.33;1.48;;;;;;;;;;5039417;28;20051;-77
2022/01/28 03:46:03;;;;;;;5.30;2.03;;;;;;;;;;5018513;28;20457;-77
2022/01/28 03:48:28;;;;;;;5.50;2.22;;;;;;;;;;5004756;28;20036;-77
2022/01/28 03:50:54;;;;;;;4.63;2.00;;;;;;;;;;5038183;28;20049;-77
2022/01/28 03:53:19;;;;;;;4.82;2.08;;;;;;;;;;5022576;28;20419;-77
2022/01/28 03:55:46;;;;;;;3.97;2.00;;;;;;;;;;5011170;28;20419;-77
2022/01/28 03:58:12;;;;;;;3.75;1.75;;;;;;;;;;5049922;28;20036;-77
2022/01/28 04:00:37;;;;;;;6.72;1.88;;;;;;;;;;5037462;28;20036;-77
2022/01/28 04:03:36;;;;;;;3.67;1.75;;;;;;;;;;5037899;28;20388;-77
2022/01/28 04:13:56;;;;;;;3.13;1.70;;;;;;;;;;5052296;28;20424;-77
2022/01/28 04:18:48;;;;;;;4.57;1.95;;;;;;;;;;5004238;28;20484;-77
2022/01/28 04:21:13;;;;;;;3.15;1.60;;;;;;;;;;5027080;28;20109;-77
2022/01/28 04:23:39;;;;;;;4.15;1.60;;;;;;;;;;5033628;28;20151;-76
2022/01/28 04:26:04;;;;;;;4.20;1.63;;;;;;;;;;5026591;28;20477;-77
2022/01/28 04:28:31;;;;;;;3.35;1.55;;;;;;;;;;5017728;28;20040;-77
2022/01/28 04:30:56;;;;;;;5.28;1.42;;;;;;;;;;5017745;28;20040;-77
2022/01/28 04:33:22;;;;;;;3.10;1.70;;;;;;;;;;5011115;28;20107;-77
2022/01/28 04:35:50;;;;;;;3.90;1.70;;;;;;;;;;5017031;28;20106;-77
2022/01/28 04:38:29;;;;;;;3.38;1.48;;;;;;;;;;5009225;28;20045;-76
2022/01/28 04:41:07;;;;;;;3.80;1.70;;;;;;;;;;5036191;28;20551;-77
2022/01/28 04:43:39;;;;;;;3.63;1.80;;;;;;;;;;5006861;28;20124;-77
2022/01/28 04:48:41;;;;;;;4.80;1.77;;;;;;;;;;5017320;28;20098;-77
2022/01/28 04:54:56;;;;;;;3.55;1.70;;;;;;;;;;5023652;28;20037;-77
2022/01/28 04:56:46;;;;;;;3.40;1.45;;;;;;;;;;5017354;28;20128;-77
2022/01/28 05:02:06;;;;;;;4.30;1.63;;;;;;;;;;5017774;28;20041;-77
2022/01/28 05:10:27;;;;;;;4.05;1.80;;;;;;;;;;5041911;28;20120;-76
2022/01/28 05:13:20;;;;;;;3.30;1.73;;;;;;;;;;5037696;28;20047;-77
2022/01/28 05:24:11;;;;;;;4.28;1.70;;;;;;;;;;5039035;28;20112;-77
2022/01/28 05:26:40;;;;;;;4.30;1.77;;;;;;;;;;5011236;28;20048;-77
2022/01/28 05:29:06;;;;;;;3.92;1.55;;;;;;;;;;5040922;28;20051;-77
2022/01/28 05:31:31;;;;;;;4.15;1.70;;;;;;;;;;5057198;28;20116;-77
2022/01/28 05:33:57;;;;;;;4.68;1.80;;;;;;;;;;5006147;28;20115;-77
2022/01/28 05:36:22;;;;;;;4.20;1.42;;;;;;;;;;5024102;28;20045;-77
2022/01/28 05:38:48;;;;;;;5.40;1.65;;;;;;;;;;4987850;28;20029;-77
2022/01/28 05:41:14;;;;;;;3.28;1.85;;;;;;;;;;5020676;28;20041;-77
2022/01/28 05:43:39;;;;;;;4.25;1.40;;;;;;;;;;5020198;28;20037;-77
2022/01/28 05:46:05;;;;;;;3.63;1.50;;;;;;;;;;5004575;28;20044;-77
2022/01/28 05:48:30;;;;;;;7.47;2.40;;;;;;;;;;5015702;28;20033;-77
2022/01/28 05:50:56;;;;;;;3.85;1.83;;;;;;;;;;5040548;28;20526;-77
2022/01/28 05:53:22;;;;;;;3.40;1.70;;;;;;;;;;5023683;28;20044;-77
2022/01/28 05:55:48;;;;;;;3.55;1.48;;;;;;;;;;5040366;28;20037;-77
2022/01/28 05:58:13;;;;;;;5.72;1.73;;;;;;;;;;5040371;28;20375;-77
2022/01/28 06:00:39;;;;;;;3.40;1.75;;;;;;;;;;5039988;28;20043;-77
2022/01/28 06:03:04;;;;;;;4.20;1.92;;;;;;;;;;5026709;28;20411;-76
2022/01/28 06:05:30;;;;;;;5.15;2.20;;;;;;;;;;5068750;28;20403;-76
2022/01/28 06:07:59;;;;;;;3.72;1.42;;;;;;;;;;5037169;28;20407;-76
2022/01/28 06:10:24;;;;;;;4.07;1.77;;;;;;;;;;5020171;28;20514;-77
2022/01/28 06:12:50;;;;;;;4.07;1.52;;;;;;;;;;5003719;28;20033;-76
2022/01/28 06:15:15;;;;;;;4.32;1.60;;;;;;;;;;5036953;28;20464;-76
2022/01/28 06:17:41;;;;;;;4.05;1.63;;;;;;;;;;5036419;28;20119;-76
2022/01/28 06:20:08;;;;;;;5.60;1.73;;;;;;;;;;5020319;28;20128;-77
2022/01/28 06:22:40;;;;;;;4.80;2.22;;;;;;;;;;5025098;28;20036;-77
2022/01/28 06:25:06;;;;;;;;;;;;;;;;;;5027263;28;20044;-76
2022/01/28 06:27:31;;;;;;;6.25;2.00;;;;;;;;;;5050595;28;20392;-76
2022/01/28 06:29:57;;;;;;;4.05;1.63;;;;;;;;;;5040059;28;20123;-76
2022/01/28 06:32:22;;;;;;;5.30;1.83;;;;;;;;;;5054158;28;20390;-77
2022/01/28 06:34:47;;;;;;;7.22;2.35;;;;;;;;;;5031312;28;20041;-76
2022/01/28 06:37:13;;;;;;;9.32;3.00;;;;;;;;;;5019931;28;20041;-77
2022/01/28 06:39:38;;;;;;;6.63;2.70;;;;;;;;;;5004610;28;20052;-76
2022/01/28 06:42:05;;;;;;;10.52;3.38;;;;;;;;;;5050528;28;20035;-77
2022/01/28 06:44:31;;;;;;;5.47;2.40;;;;;;;;;;5034716;28;20032;-76
2022/01/28 06:46:56;;;;;;;7.90;2.20;;;;;;;;;;5020094;28;20039;-76
2022/01/28 06:49:22;;;;;;;8.18;2.40;;;;;;;;;;5048606;28;20040;-76
2022/01/28 06:51:47;;;;;;;8.98;3.13;;;;;;;;;;5041701;28;20052;-77
2022/01/28 06:54:13;;;;;;;10.45;2.90;;;;;;;;;;5027486;28;20073;-77
2022/01/28 06:56:38;;;;;;;10.00;2.50;;;;;;;;;;5019282;28;20499;-76
2022/01/28 06:59:04;;;;;;;10.00;4.07;;;;;;;;;;5019311;28;20064;-76
2022/01/28 07:01:29;;;;;;;8.63;2.50;;;;;;;;;;5051510;28;20036;-76
2022/01/28 07:03:55;;;;;;;32.83;21.10;;;;;;;;;;5037457;28;20578;-77
2022/01/28 07:06:21;;;;;;;538.45;422.88;;;;;;;;;;5039971;28;20036;-76
2022/01/28 07:08:47;;;;;;;421.45;326.38;;;;;;;;;;5020271;28;20102;-76
2022/01/28 07:11:12;;;;;;;267.42;200.90;;;;;;;;;;5039376;28;20075;-76
2022/01/28 07:13:38;;;;;;;227.43;173.68;;;;;;;;;;5037645;28;20404;-76
2022/01/28 07:16:03;;;;;;;217.23;162.80;;;;;;;;;;5055763;28;20440;-76
2022/01/28 07:18:29;;;;;;;220.80;161.63;;;;;;;;;;5073339;28;20036;-76
2022/01/28 07:20:54;;;;;;;203.70;150.55;;;;;;;;;;5067352;28;20033;-76
2022/01/28 07:23:20;;;;;;;204.95;142.77;;;;;;;;;;5038647;28;20058;-76
2022/01/28 07:25:45;;;;;;;188.30;141.07;;;;;;;;;;5030054;28;20056;-76
2022/01/28 07:28:10;;;;;;;186.75;135.60;;;;;;;;;;5002417;28;20053;-76
2022/01/28 07:30:36;;;;;;;169.32;127.10;;;;;;;;;;5036287;28;20045;-76
2022/01/28 07:33:05;;;;;;;166.90;122.65;;;;;;;;;;5047061;28;20045;-76
2022/01/28 07:35:31;;;;;;;157.40;116.03;;;;;;;;;;5041138;28;20487;-76
2022/01/28 07:37:56;;;;;;;153.10;113.57;;;;;;;;;;5054390;28;20047;-76
2022/01/28 07:40:21;;;;;;;156.45;113.05;;;;;;;;;;5044365;28;20036;-76
2022/01/28 07:42:47;;;;;;;152.90;110.70;;;;;;;;;;5035407;28;20048;-76
2022/01/28 07:45:14;;;;;;;142.43;103.65;;;;;;;;;;5054935;28;20411;-76
2022/01/28 07:47:39;;;;;;;141.93;101.18;;;;;;;;;;5032862;28;20475;-76
2022/01/28 07:50:06;;;;;;;124.82;92.47;;;;;;;;;;5023769;28;20048;-76
2022/01/28 07:52:31;;;;;;;129.02;93.30;;;;;;;;;;5034749;28;20044;-76
2022/01/28 07:54:57;;;;;;;118.88;83.57;;;;;;;;;;5018193;28;20053;-76
2022/01/28 07:57:22;;;;;;;136.52;101.60;;;;;;;;;;5001803;28;20051;-76
2022/01/28 07:59:47;;;;;;;123.85;91.68;;;;;;;;;;5018023;28;20048;-76
2022/01/28 08:02:13;;;;;;;117.28;88.55;;;;;;;;;;5060708;28;20060;-76
2022/01/28 08:04:39;;;;;;;119.80;86.65;;;;;;;;;;5001787;28;20040;-76
2022/01/28 08:07:04;;;;;;;116.55;84.50;;;;;;;;;;5017826;28;20091;-76
2022/01/28 08:09:30;;;;;;;115.45;83.07;;;;;;;;;;5018348;28;20457;-76
2022/01/28 08:12:04;;;;;;;108.97;79.68;;;;;;;;;;5068215;28;20386;-77
2022/01/28 08:14:31;;;;;;;105.47;73.75;;;;;;;;;;5011493;28;20109;-77
2022/01/28 08:16:57;;;;;;;101.22;73.97;;;;;;;;;;4995080;28;20563;-78
2022/01/28 08:19:22;;;;;;;101.20;72.80;;;;;;;;;;5008993;28;20034;-77
2022/01/28 08:21:48;;;;;;;97.03;72.65;;;;;;;;;;5021246;28;20060;-77
2022/01/28 08:24:13;;;;;;;96.07;69.00;;;;;;;;;;5011007;28;20421;-77
2022/01/28 08:26:38;;;;;;;91.80;66.65;;;;;;;;;;5021535;28;20038;-77
2022/01/28 08:29:06;;;;;;;92.75;65.53;;;;;;;;;;5027301;28;20045;-77
2022/01/28 08:31:31;;;;;;;91.45;66.18;;;;;;;;;;5019007;28;20111;-77
2022/01/28 08:33:57;;;;;;;90.20;62.80;;;;;;;;;;5028849;28;20091;-77
2022/01/28 08:36:22;;;;;;;78.20;58.10;;;;;;;;;;5008026;28;20053;-77
2022/01/28 08:38:50;;;;;;;82.90;60.30;;;;;;;;;;5010931;28;20030;-77
2022/01/28 08:41:15;;;;;;;82.70;59.10;;;;;;;;;;5011100;28;20535;-77
2022/01/28 08:43:41;;;;;;;79.43;57.92;;;;;;;;;;5023926;28;20106;-77
2022/01/28 08:46:06;;;;;;;76.95;55.83;;;;;;;;;;5015906;28;20029;-77
2022/01/28 08:48:32;;;;;;;71.85;53.35;;;;;;;;;;5009092;28;20037;-77
2022/01/28 08:50:57;;;;;;;74.57;51.70;;;;;;;;;;5029188;28;20083;-77
2022/01/28 08:53:23;;;;;;;75.32;52.40;;;;;;;;;;5013353;28;20075;-77
2022/01/28 08:55:48;;;;;;;64.65;48.58;;;;;;;;;;5028647;28;20096;-77
2022/01/28 08:58:15;;;;;;;66.85;49.35;;;;;;;;;;5028878;28;20107;-77
2022/01/28 09:00:43;;;;;;;64.93;46.97;;;;;;;;;;5023321;28;20037;-77
2022/01/28 09:03:08;;;;;;;66.72;46.47;;;;;;;;;;5009460;28;20033;-77
2022/01/28 09:05:34;;;;;;;60.38;44.30;;;;;;;;;;5047569;28;20056;-77
2022/01/28 09:08:06;;;;;;;60.17;43.63;;;;;;;;;;5024576;28;20064;-77
2022/01/28 09:10:31;;;;;;;59.90;44.70;;;;;;;;;;5030710;28;20518;-77
2022/01/28 09:15:35;;;;;;;51.45;39.33;;;;;;;;;;5046803;28;20034;-77
2022/01/28 09:18:01;;;;;;;53.38;38.95;;;;;;;;;;5033874;28;20041;-77
2022/01/28 09:20:30;;;;;;;52.47;37.88;;;;;;;;;;5013096;28;20064;-77
2022/01/28 09:22:56;;;;;;;51.83;39.15;;;;;;;;;;4998340;28;20069;-77
2022/01/28 09:25:22;;;;;;;51.05;36.05;;;;;;;;;;4996918;28;20544;-77
2022/01/28 09:27:47;;;;;;;51.33;36.67;;;;;;;;;;4981820;28;20048;-77
2022/01/28 09:30:16;;;;;;;45.45;33.92;;;;;;;;;;4996934;28;20034;-77
2022/01/28 09:32:42;;;;;;;48.95;34.80;;;;;;;;;;5012415;28;20095;-77
2022/01/28 09:35:08;;;;;;;48.17;34.58;;;;;;;;;;5005792;28;20037;-77
2022/01/28 09:37:34;;;;;;;46.10;34.67;;;;;;;;;;4999591;28;20037;-77
2022/01/28 09:40:00;;;;;;;43.90;31.70;;;;;;;;;;5012420;28;20548;-76
2022/01/28 09:42:29;;;;;;;59.38;39.97;;;;;;;;;;4996531;28;20950;-77
2022/01/28 09:44:54;;;;;;;56.88;39.40;;;;;;;;;;5013338;28;20044;-76
2022/01/28 09:47:19;;;;;;;44.15;34.83;;;;;;;;;;4996464;28;20829;-76
2022/01/28 09:49:45;;;;;;;48.70;33.58;;;;;;;;;;4995856;28;20076;-76
2022/01/28 09:52:11;;;;;;;45.35;32.47;;;;;;;;;;4999482;28;20064;-76
2022/01/28 09:54:37;;;;;;;43.83;31.13;;;;;;;;;;4983308;28;20407;-76
2022/01/28 09:57:03;;;;;;;46.38;31.00;;;;;;;;;;4996534;28;20038;-76
2022/01/28 09:59:28;;;;;;;49.13;30.83;;;;;;;;;;5013025;28;20026;-77
2022/01/28 10:01:54;;;;;;;40.50;29.65;;;;;;;;;;5012112;28;20099;-76
2022/01/28 10:04:20;;;;;;;43.63;27.67;;;;;;;;;;4999130;28;20099;-76
2022/01/28 10:06:46;;;;;;;37.33;26.65;;;;;;;;;;5015891;28;20073;-76
2022/01/28 10:09:12;;;;;;;37.97;27.05;;;;;;;;;;5019804;28;20044;-76
2022/01/28 10:11:39;;;;;;;38.75;25.52;;;;;;;;;;5015418;28;20059;-76
2022/01/28 10:14:10;;;;;;;32.55;24.58;;;;;;;;;;5000033;28;20091;-77
2022/01/28 10:16:36;;;;;;;32.60;23.50;;;;;;;;;;5000666;28;20463;-76
2022/01/28 10:19:06;;;;;;;31.77;23.33;;;;;;;;;;4984791;28;20087;-76
2022/01/28 10:21:44;;;;;;;32.90;23.05;;;;;;;;;;5001485;28;20069;-76
2022/01/28 10:24:11;;;;;;;34.58;23.45;;;;;;;;;;4980957;28;20080;-76
2022/01/28 10:26:45;;;;;;;31.13;22.13;;;;;;;;;;5013819;28;20042;-76
2022/01/28 10:29:26;;;;;;;30.13;21.88;;;;;;;;;;5014631;28;20048;-76
2022/01/28 10:31:58;;;;;;;31.60;21.70;;;;;;;;;;5004842;28;20076;-76
2022/01/28 10:34:42;;;;;;;29.13;20.40;;;;;;;;;;5025078;28;20084;-76
2022/01/28 10:37:15;;;;;;;28.45;20.10;;;;;;;;;;5016739;28;20042;-76
2022/01/28 10:39:45;;;;;;;28.17;20.33;;;;;;;;;;4995318;28;20053;-76
2022/01/28 10:42:12;;;;;;;24.67;19.13;;;;;;;;;;5012856;28;20066;-76
2022/01/28 10:44:50;;;;;;;29.33;18.80;;;;;;;;;;5007100;28;20054;-76
2022/01/28 10:47:16;;;;;;;26.40;18.30;;;;;;;;;;5025520;28;20507;-76
2022/01/28 10:49:41;;;;;;;27.20;19.10;;;;;;;;;;4999750;28;20066;-76
2022/01/28 10:52:09;;;;;;;23.75;17.48;;;;;;;;;;5011512;28;20053;-76
2022/01/28 10:54:36;;;;;;;23.33;17.25;;;;;;;;;;4979599;28;20041;-76
2022/01/28 10:57:01;;;;;;;24.60;17.15;;;;;;;;;;5024791;28;20564;-79
2022/01/28 10:59:28;;;;;;;22.05;17.23;;;;;;;;;;4977481;28;20129;-77
2022/01/28 11:01:54;;;;;;;22.83;17.30;;;;;;;;;;4994692;28;20069;-76
2022/01/28 11:04:20;;;;;;;24.83;18.90;;;;;;;;;;5010809;28;20060;-76
2022/01/28 11:06:46;;;;;;;27.15;18.83;;;;;;;;;;4995230;28;20435;-77
2022/01/28 11:09:13;;;;;;;25.67;17.73;;;;;;;;;;4995055;28;20462;-78
2022/01/28 11:11:38;;;;;;;27.10;16.90;;;;;;;;;;5013314;28;20042;-77
2022/01/28 11:14:04;;;;;;;22.05;17.42;;;;;;;;;;5014695;28;20060;-77
2022/01/28 11:16:29;;;;;;;23.27;17.00;;;;;;;;;;5032388;28;20112;-75
2022/01/28 11:18:55;;;;;;;24.27;16.90;;;;;;;;;;5014865;28;20407;-77
2022/01/28 11:21:27;;;;;;;23.02;17.55;;;;;;;;;;5012581;28;20048;-78
2022/01/28 11:24:12;;;;;;;20.98;16.33;;;;;;;;;;4996202;28;20096;-78
2022/01/28 11:26:43;;;;;;;19.45;15.40;;;;;;;;;;4978868;28;20038;-78
2022/01/28 11:29:12;;;;;;;19.73;14.77;;;;;;;;;;5011973;28;20099;-78
2022/01/28 11:31:47;;;;;;;20.42;15.23;;;;;;;;;;4996300;28;20296;-78
2022/01/28 11:34:28;;;;;;;19.67;14.18;;;;;;;;;;5015447;28;20068;-78
2022/01/28 11:36:56;;;;;;;19.27;14.60;;;;;;;;;;5001782;28;20117;-77
2022/01/28 11:39:41;;;;;;;19.65;14.30;;;;;;;;;;4984741;28;20084;-77
2022/01/28 11:42:25;;;;;;;18.05;13.68;;;;;;;;;;5015919;28;20090;-78
2022/01/28 11:44:50;;;;;;;18.98;13.13;;;;;;;;;;5013750;28;20037;-78
2022/01/28 11:47:26;;;;;;;16.77;14.07;;;;;;;;;;5030458;28;20037;-78
2022/01/28 11:50:07;;;;;;;17.08;13.05;;;;;;;;;;5011935;28;20061;-77
2022/01/28 11:52:39;;;;;;;18.88;13.68;;;;;;;;;;5014774;28;20117;-78
2022/01/28 11:55:26;;;;;;;17.73;12.70;;;;;;;;;;5012042;28;20055;-77
2022/01/28 11:58:08;;;;;;;17.75;13.05;;;;;;;;;;5029672;28;20053;-77
2022/01/28 12:00:38;;;;;;;15.93;11.23;;;;;;;;;;5016912;28;20052;-77
2022/01/28 12:03:28;;;;;;;18.40;12.32;;;;;;;;;;5033738;28;20086;-77
2022/01/28 12:06:20;;;;;;;19.25;11.30;;;;;;;;;;5043533;28;20049;-77
2022/01/28 12:08:46;;;;;;;18.27;11.57;;;;;;;;;;5005514;28;20053;-77
2022/01/28 12:11:13;;;;;;;17.50;11.73;;;;;;;;;;4994124;28;20292;-78
2022/01/28 12:14:05;;;;;;;19.35;11.63;;;;;;;;;;5010222;28;20033;-78
2022/01/28 12:16:33;;;;;;;14.43;11.10;;;;;;;;;;5011081;28;20037;-77
2022/01/28 12:18:58;;;;;;;15.73;10.75;;;;;;;;;;5009576;28;20045;-78
2022/01/28 12:21:28;;;;;;;15.90;10.55;;;;;;;;;;5004817;28;20059;-77
2022/01/28 12:23:55;;;;;;;15.30;9.75;;;;;;;;;;4995915;28;20050;-77
2022/01/28 12:26:21;;;;;;;17.17;10.25;;;;;;;;;;4995728;28;20034;-77
2022/01/28 12:28:54;;;;;;;14.90;10.05;;;;;;;;;;4969196;28;20377;-77
2022/01/28 12:31:20;;;;;;;12.95;9.05;;;;;;;;;;4997457;28;20029;-77
2022/01/28 12:33:51;;;;;;;13.32;8.75;;;;;;;;;;5010187;28;20092;-77
2022/01/28 12:36:24;;;;;;;14.80;9.32;;;;;;;;;;4992578;28;20037;-77
2022/01/28 12:39:04;;;;;;;16.50;9.82;;;;;;;;;;4999021;28;20113;-77
2022/01/28 12:41:40;;;;;;;12.05;8.68;;;;;;;;;;4980819;28;20088;-77
2022/01/28 12:44:06;;;;;;;12.75;9.40;;;;;;;;;;5010704;28;20038;-77
2022/01/28 12:46:31;;;;;;;12.38;8.30;;;;;;;;;;4995121;28;20088;-77
2022/01/28 12:48:59;;;;;;;11.75;8.07;;;;;;;;;;5009936;28;20065;-77
2022/01/28 12:51:24;;;;;;;11.85;9.10;;;;;;;;;;4994438;28;20112;-77
2022/01/28 12:53:57;;;;;;;10.27;7.80;;;;;;;;;;4977592;28;20048;-77
2022/01/28 12:56:39;;;;;;;10.02;7.30;;;;;;;;;;4979181;28;20030;-77
2022/01/28 12:59:05;;;;;;;10.55;7.47;;;;;;;;;;4983049;28;20630;-77
2022/01/28 13:01:31;;;;;;;10.57;7.13;;;;;;;;;;4999256;28;20042;-77
2022/01/28 13:04:11;;;;;;;10.63;7.05;;;;;;;;;;4981248;28;20037;-77
2022/01/28 13:09:14;;;;;;;10.57;7.32;;;;;;;;;;4997649;28;20393;-78
2022/01/28 13:11:58;;;;;;;11.05;6.70;;;;;;;;;;4996724;28;20413;-77
2022/01/28 13:14:26;;;;;;;10.73;7.63;;;;;;;;;;4981194;28;20484;-77
2022/01/28 13:16:51;;;;;;;12.55;7.70;;;;;;;;;;5013971;28;20034;-77
2022/01/28 13:19:17;;;;;;;12.18;7.30;;;;;;;;;;5005151;28;20397;-77
2022/01/28 13:21:44;;;;;;;9.35;6.05;;;;;;;;;;5010992;28;20029;-77
2022/01/28 13:24:23;;;;;;;10.20;6.88;;;;;;;;;;4982418;28;20385;-77
2022/01/28 13:27:06;;;;;;;11.80;7.18;;;;;;;;;;4996227;28;20045;-77
2022/01/28 13:29:32;;;;;;;;;;;;;;;;;;5014201;28;20041;-77
2022/01/28 13:31:58;;;;;;;9.48;6.47;;;;;;;;;;5020822;28;19921;-77
2022/01/28 13:34:24;;;;;;;9.40;5.97;;;;;;;;;;4978781;28;20040;-77
2022/01/28 13:36:52;;;;;;;9.82;6.95;;;;;;;;;;4996496;28;20054;-77
2022/01/28 13:39:19;;;;;;;10.40;6.07;;;;;;;;;;4997113;28;20499;-77
2022/01/28 13:41:47;;;;;;;7.32;5.60;;;;;;;;;;4996371;28;20142;-77
2022/01/28 13:44:26;;;;;;;10.23;6.38;;;;;;;;;;5019864;28;20049;-77
2022/01/28 13:46:58;;;;;;;11.02;6.45;;;;;;;;;;5017393;28;20069;-77
2022/01/28 13:49:28;;;;;;;;;;;;;;;;;;4998083;28;20034;-77
2022/01/28 13:51:54;;;;;;;9.30;5.97;;;;;;;;;;5019381;28;19948;-77
2022/01/28 13:54:42;;;;;;;9.27;5.68;;;;;;;;;;4996516;28;20069;-77
2022/01/28 13:57:11;;;;;;;9.18;5.78;;;;;;;;;;4996361;28;20041;-77
2022/01/28 13:59:38;;;;;;;7.78;6.00;;;;;;;;;;4979786;28;20524;-77
2022/01/28 14:02:10;;;;;;;9.65;5.30;;;;;;;;;;4964027;28;20026;-77
2022/01/28 14:04:46;;;;;;;9.52;5.97;;;;;;;;;;4996411;28;20092;-77
2022/01/28 14:07:23;;;;;;;7.93;5.65;;;;;;;;;;5002731;28;20045;-77
2022/01/28 14:09:58;;;;;;;11.18;5.60;;;;;;;;;;4998217;28;20056;-77
2022/01/28 14:12:24;;;;;;;9.40;5.25;;;;;;;;;;5014742;28;20041;-77
2022/01/28 14:14:51;;;;;;;6.88;4.30;;;;;;;;;;5032452;28;20040;-77
2022/01/28 14:17:16;;;;;;;7.40;4.57;;;;;;;;;;5020587;28;20099;-77
2022/01/28 14:19:43;;;;;;;7.40;4.53;;;;;;;;;;4979820;28;20121;-77
2022/01/28 14:22:12;;;;;;;7.57;4.47;;;;;;;;;;5017670;28;20038;-74
2022/01/28 14:24:39;;;;;;;6.93;4.70;;;;;;;;;;4995887;28;20527;-75
2022/01/28 14:32:07;;;;;;;7.97;4.32;;;;;;;;;;5031495;28;20037;-75
2022/01/28 14:34:32;;;;;;;10.13;4.20;;;;;;;;;;4995997;28;20034;-74
2022/01/28 14:36:58;;;;;;;7.93;4.35;;;;;;;;;;4979757;28;20065;-75
2022/01/28 14:39:24;;;;;;;7.88;4.38;;;;;;;;;;4995211;28;20073;-76
2022/01/28 14:41:50;;;;;;;7.88;4.30;;;;;;;;;;4995465;28;20045;-75
2022/01/28 14:44:16;;;;;;;7.65;4.43;;;;;;;;;;4995931;28;20147;-76
2022/01/28 14:46:41;;;;;;;8.38;4.28;;;;;;;;;;4979468;28;20038;-76
2022/01/28 14:49:07;;;;;;;8.73;4.25;;;;;;;;;;4995681;28;20495;-76
2022/01/28 14:51:36;;;;;;;7.03;4.43;;;;;;;;;;4979044;28;20033;-76
2022/01/28 14:54:02;;;;;;;7.65;4.20;;;;;;;;;;4995416;28;20076;-76
2022/01/28 14:56:28;;;;;;;4.95;4.10;;;;;;;;;;4995471;28;20038;-76
2022/01/28 14:58:53;;;;;;;9.73;4.30;;;;;;;;;;4995507;28;20034;-76
2022/01/28 15:01:18;;;;;;;6.47;4.68;;;;;;;;;;5011426;28;20137;-76
2022/01/28 15:03:44;;;;;;;6.68;4.20;;;;;;;;;;4994937;28;20452;-76
2022/01/28 15:06:15;;;;;;;5.35;3.25;;;;;;;;;;4979224;28;20049;-76
2022/01/28 15:08:42;;;;;;;5.75;3.65;;;;;;;;;;4995515;28;20030;-76
2022/01/28 15:11:13;;;;;;;7.25;3.92;;;;;;;;;;4995038;28;20046;-76
2022/01/28 15:13:39;;;;;;;6.53;4.20;;;;;;;;;;4980294;28;20036;-76
2022/01/28 15:16:05;;;;;;;5.93;3.03;;;;;;;;;;4995307;28;20080;-76
2022/01/28 15:18:30;;;;;;;5.50;3.30;;;;;;;;;;4995258;28;20034;-76
2022/01/28 15:20:56;;;;;;;6.47;3.50;;;;;;;;;;5017357;28;20099;-76
2022/01/28 15:23:21;;;;;;;4.97;3.55;;;;;;;;;;4996682;28;20042;-76
2022/01/28 15:25:47;;;;;;;5.65;3.60;;;;;;;;;;4994571;28;20500;-76
2022/01/28 15:28:17;;;;;;;4.90;3.53;;;;;;;;;;5011455;28;20034;-76
2022/01/28 15:36:11;;;;;;;4.28;3.45;;;;;;;;;;5012030;28;20117;-76
2022/01/28 15:38:37;;;;;;;4.80;2.92;;;;;;;;;;5027506;28;20037;-76
2022/01/28 15:41:07;;;;;;;4.78;3.10;;;;;;;;;;4994404;28;20084;-76
2022/01/28 15:43:32;;;;;;;5.53;3.35;;;;;;;;;;5027070;28;20045;-76
2022/01/28 15:45:58;;;;;;;5.88;3.25;;;;;;;;;;5011207;28;20112;-76
2022/01/28 15:48:23;;;;;;;6.85;3.30;;;;;;;;;;5027198;28;20443;-76
2022/01/28 15:50:52;;;;;;;4.85;2.90;;;;;;;;;;5010712;28;20113;-76
2022/01/28 15:53:20;;;;;;;4.18;3.15;;;;;;;;;;4995042;28;20116;-76
2022/01/28 15:55:45;;;;;;;5.28;2.83;;;;;;;;;;5011823;28;20045;-76
2022/01/28 15:58:11;;;;;;;5.85;3.38;;;;;;;;;;5027202;28;20038;-76
2022/01/28 16:00:36;;;;;;;3.88;2.78;;;;;;;;;;5010645;28;20037;-76
2022/01/28 16:03:02;;;;;;;4.65;3.10;;;;;;;;;;5026632;28;20038;-76